createdAt,value
2018-11-03T00:00:03.377Z,11.03
2018-11-03T00:02:31.599Z,10.60
2018-11-03T00:05:00.054Z,9.23
2018-11-03T00:07:28.190Z,10.57
2018-11-03T00:09:56.422Z,10.30
2018-11-03T00:12:24.614Z,8.07
2018-11-03T00:14:55.234Z,7.63
2018-11-03T00:17:24.462Z,9.50
2018-11-03T00:19:52.673Z,11.07
2018-11-03T00:22:20.878Z,7.60
2018-11-03T00:24:49.057Z,8.93
2018-11-03T00:27:17.406Z,8.23
2018-11-03T00:29:45.738Z,7.83
2018-11-03T00:32:14.039Z,10.83
2018-11-03T00:34:44.099Z,9.40
2018-11-03T00:37:12.258Z,12.67
2018-11-03T00:39:40.432Z,9.70
2018-11-03T00:42:08.662Z,13.73
2018-11-03T00:44:37.162Z,14.27
2018-11-03T00:47:06.131Z,9.13
2018-11-03T00:49:34.330Z,8.07
2018-11-03T00:52:02.522Z,10.03
2018-11-03T00:54:30.702Z,9.27
2018-11-03T00:56:59.779Z,10.20
2018-11-03T00:59:27.946Z,13.77
2018-11-03T01:01:56.129Z,9.57
2018-11-03T01:04:24.758Z,8.00
2018-11-03T01:06:53.015Z,11.30
2018-11-03T01:09:22.151Z,10.03
2018-11-03T01:11:50.792Z,11.83
2018-11-03T01:14:19.640Z,9.97
2018-11-03T01:16:47.840Z,10.73
2018-11-03T01:19:15.997Z,11.60
2018-11-03T01:21:44.246Z,12.47
2018-11-03T01:24:12.435Z,14.10
2018-11-03T01:26:47.056Z,11.53
2018-11-03T01:29:15.380Z,12.90
2018-11-03T01:31:43.725Z,13.57
2018-11-03T01:34:11.926Z,12.27
2018-11-03T01:36:40.134Z,12.27
2018-11-03T01:39:09.843Z,11.50
2018-11-03T01:41:38.999Z,10.37
2018-11-03T01:44:07.278Z,10.57
2018-11-03T01:46:35.438Z,14.90
2018-11-03T01:49:03.623Z,10.27
2018-11-03T01:51:32.250Z,13.37
2018-11-03T01:54:04.114Z,11.73
2018-11-03T01:56:32.323Z,10.87
2018-11-03T01:59:01.603Z,12.23
2018-11-03T02:01:29.954Z,12.17
2018-11-03T02:03:58.119Z,8.27
2018-11-03T02:06:26.358Z,9.77
2018-11-03T02:08:54.494Z,9.43
2018-11-03T02:11:22.990Z,10.10
2018-11-03T02:16:34.477Z,12.43
2018-11-03T02:19:02.678Z,10.00
2018-11-03T02:21:30.943Z,11.33
2018-11-03T02:23:59.106Z,13.07
2018-11-03T02:26:27.278Z,11.67
2018-11-03T02:28:55.450Z,12.70
2018-11-03T02:31:25.496Z,12.97
2018-11-03T02:33:53.691Z,10.83
2018-11-03T02:36:21.920Z,13.23
2018-11-03T02:38:50.089Z,11.97
2018-11-03T02:41:18.254Z,11.20
2018-11-03T02:43:46.904Z,11.90
2018-11-03T02:46:15.726Z,18.97
2018-11-03T02:48:43.935Z,16.93
2018-11-03T02:51:12.118Z,19.50
2018-11-03T02:53:40.300Z,20.27
2018-11-03T02:56:08.561Z,21.87
2018-11-03T02:58:37.270Z,20.53
2018-11-03T03:01:05.474Z,20.37
2018-11-03T03:03:33.680Z,19.57
2018-11-03T03:06:01.819Z,17.33
2018-11-03T03:08:30.329Z,19.20
2018-11-03T03:10:58.564Z,18.07
2018-11-03T03:13:26.795Z,20.40
2018-11-03T03:15:55.823Z,18.73
2018-11-03T03:18:24.030Z,15.67
2018-11-03T03:20:52.259Z,16.53
2018-11-03T03:23:20.413Z,14.03
2018-11-03T03:25:48.641Z,15.63
2018-11-03T03:28:16.838Z,12.83
2018-11-03T03:30:45.011Z,15.57
2018-11-03T03:33:13.238Z,13.70
2018-11-03T03:35:43.638Z,14.60
2018-11-03T03:38:12.358Z,14.57
2018-11-03T03:40:40.550Z,15.67
2018-11-03T03:43:08.762Z,16.53
2018-11-03T03:45:36.966Z,16.57
2018-11-03T03:48:05.239Z,16.10
2018-11-03T03:50:33.488Z,19.50
2018-11-03T03:53:01.807Z,25.50
2018-11-03T03:55:29.974Z,28.00
2018-11-03T03:57:58.142Z,27.07
2018-11-03T04:00:26.331Z,28.40
2018-11-03T04:02:54.503Z,28.80
2018-11-03T04:05:22.731Z,24.47
2018-11-03T04:07:52.670Z,23.80
2018-11-03T04:10:20.903Z,24.30
2018-11-03T04:12:49.096Z,25.33
2018-11-03T04:15:17.334Z,26.37
2018-11-03T04:17:45.526Z,24.10
2018-11-03T04:20:13.718Z,27.73
2018-11-03T04:22:41.971Z,28.57
2018-11-03T04:25:12.016Z,34.17
2018-11-03T04:27:40.210Z,23.27
2018-11-03T04:30:10.837Z,26.63
2018-11-03T04:32:39.292Z,26.90
2018-11-03T04:35:07.690Z,25.23
2018-11-03T04:37:36.054Z,20.87
2018-11-03T04:40:05.022Z,18.90
2018-11-03T04:42:33.222Z,21.43
2018-11-03T04:45:01.453Z,18.83
2018-11-03T04:47:30.339Z,18.13
2018-11-03T04:49:58.559Z,16.40
2018-11-03T04:52:26.771Z,19.77
2018-11-03T04:54:55.018Z,18.63
2018-11-03T04:57:23.181Z,22.20
2018-11-03T04:59:51.380Z,20.93
2018-11-03T05:02:19.974Z,26.60
2018-11-03T05:04:48.676Z,27.40
2018-11-03T05:07:16.828Z,21.13
2018-11-03T05:09:45.409Z,18.00
2018-11-03T05:12:13.575Z,18.43
2018-11-03T05:14:41.786Z,17.77
2018-11-03T05:17:11.754Z,18.73
2018-11-03T05:19:42.319Z,13.87
2018-11-03T05:22:11.138Z,14.03
2018-11-03T05:24:39.286Z,14.40
2018-11-03T05:27:07.462Z,16.23
2018-11-03T05:29:37.126Z,15.17
2018-11-03T05:32:06.218Z,22.40
2018-11-03T05:34:34.688Z,19.20
2018-11-03T05:37:03.331Z,17.40
2018-11-03T05:39:31.678Z,17.37
2018-11-03T05:42:00.317Z,21.47
2018-11-03T05:44:31.995Z,17.53
2018-11-03T05:47:00.178Z,17.53
2018-11-03T05:49:28.407Z,20.30
2018-11-03T05:51:56.581Z,19.57
2018-11-03T05:54:27.522Z,17.23
2018-11-03T05:56:55.712Z,17.70
2018-11-03T05:59:23.918Z,17.63
2018-11-03T06:01:52.129Z,17.90
2018-11-03T06:04:20.320Z,12.37
2018-11-03T06:06:49.278Z,13.10
2018-11-03T06:09:18.501Z,14.27
2018-11-03T06:11:48.603Z,12.70
2018-11-03T06:14:16.782Z,20.40
2018-11-03T06:16:44.977Z,12.87
2018-11-03T06:19:13.144Z,18.47
2018-11-03T06:21:41.430Z,20.00
2018-11-03T06:24:09.638Z,23.33
2018-11-03T06:26:37.799Z,21.07
2018-11-03T06:29:06.109Z,19.77
2018-11-03T06:31:34.258Z,17.77
2018-11-03T06:34:02.488Z,23.63
2018-11-03T06:36:30.857Z,24.13
2018-11-03T06:38:59.146Z,26.43
2018-11-03T06:41:27.226Z,27.23
2018-11-03T06:43:56.162Z,32.77
2018-11-03T06:46:24.398Z,30.87
2018-11-03T06:48:54.871Z,39.47
2018-11-03T06:51:23.293Z,37.80
2018-11-03T06:53:51.482Z,43.57
2018-11-03T06:56:19.712Z,38.97
2018-11-03T06:58:47.898Z,38.63
2018-11-03T07:01:16.201Z,25.43
2018-11-03T07:03:44.634Z,24.97
2018-11-03T07:06:12.866Z,24.33
2018-11-03T07:08:41.057Z,24.10
2018-11-03T07:11:09.279Z,22.60
2018-11-03T07:13:37.851Z,21.53
2018-11-03T07:16:06.393Z,18.47
2018-11-03T07:18:36.458Z,20.03
2018-11-03T07:21:04.741Z,19.40
2018-11-03T07:23:32.921Z,18.87
2018-11-03T07:26:01.136Z,19.20
2018-11-03T07:28:29.485Z,15.07
2018-11-03T07:30:57.674Z,16.47
2018-11-03T07:33:25.906Z,14.00
2018-11-03T07:35:54.274Z,18.73
2018-11-03T07:38:22.458Z,14.60
2018-11-03T07:40:50.654Z,14.67
2018-11-03T07:43:18.932Z,14.17
2018-11-03T07:45:47.198Z,13.53
2018-11-03T07:48:15.505Z,16.07
2018-11-03T07:50:43.588Z,18.07
2018-11-03T07:53:12.209Z,12.47
2018-11-03T07:55:40.453Z,12.93
2018-11-03T07:58:09.390Z,12.77
2018-11-03T08:00:38.175Z,17.73
2018-11-03T08:03:06.322Z,11.27
2018-11-03T08:05:35.514Z,14.63
2018-11-03T08:08:03.790Z,17.50
2018-11-03T08:10:31.958Z,12.17
2018-11-03T08:13:00.402Z,14.23
2018-11-03T08:15:29.071Z,13.20
2018-11-03T08:18:00.723Z,12.13
2018-11-03T08:20:29.354Z,16.50
2018-11-03T08:22:57.502Z,12.40
2018-11-03T08:25:25.731Z,11.43
2018-11-03T08:27:53.995Z,11.83
2018-11-03T08:30:22.151Z,13.27
2018-11-03T08:32:51.073Z,11.00
2018-11-03T08:35:19.279Z,11.27
2018-11-03T08:37:47.471Z,14.93
2018-11-03T08:40:15.758Z,13.87
2018-11-03T08:42:43.927Z,10.73
2018-11-03T08:45:12.417Z,22.30
2018-11-03T08:47:40.644Z,11.43
2018-11-03T08:50:10.195Z,10.87
2018-11-03T08:52:38.410Z,10.13
2018-11-03T08:55:07.706Z,14.63
2018-11-03T08:57:35.969Z,13.13
2018-11-03T09:00:06.284Z,14.13
2018-11-03T09:02:34.438Z,16.13
2018-11-03T09:05:02.618Z,13.37
2018-11-03T09:07:30.987Z,10.90
2018-11-03T09:09:59.231Z,11.63
2018-11-03T09:12:27.475Z,9.53
2018-11-03T09:14:55.655Z,11.27
2018-11-03T09:17:23.955Z,9.90
2018-11-03T09:19:52.119Z,10.50
2018-11-03T09:22:20.312Z,11.80
2018-11-03T09:24:48.502Z,10.73
2018-11-03T09:27:16.855Z,10.67
2018-11-03T09:29:45.269Z,11.23
2018-11-03T09:32:14.073Z,10.67
2018-11-03T09:34:42.314Z,12.57
2018-11-03T09:37:10.506Z,13.67
2018-11-03T09:39:38.695Z,11.97
2018-11-03T09:42:06.966Z,13.43
2018-11-03T09:44:35.284Z,13.20
2018-11-03T09:47:03.707Z,9.53
2018-11-03T09:49:33.227Z,9.17
2018-11-03T09:52:01.610Z,11.83
2018-11-03T09:54:29.814Z,10.00
2018-11-03T09:56:57.998Z,10.27
2018-11-03T09:59:26.187Z,9.10
2018-11-03T10:01:54.374Z,10.60
2018-11-03T10:04:22.565Z,11.20
2018-11-03T10:06:50.810Z,11.50
2018-11-03T10:09:19.034Z,13.93
2018-11-03T10:11:47.267Z,12.03
2018-11-03T10:14:17.159Z,9.77
2018-11-03T10:16:45.328Z,9.87
2018-11-03T10:19:14.046Z,10.28
2018-11-03T10:21:42.285Z,11.57
2018-11-03T10:24:10.498Z,10.35
2018-11-03T10:26:38.673Z,9.55
2018-11-03T10:29:06.950Z,10.63
2018-11-03T10:31:35.166Z,11.23
2018-11-03T10:34:04.143Z,10.03
2018-11-03T10:36:32.294Z,9.38
2018-11-03T10:39:00.690Z,13.05
2018-11-03T10:41:30.002Z,12.82
2018-11-03T10:43:58.170Z,9.60
2018-11-03T10:46:26.519Z,8.58
2018-11-03T10:48:54.574Z,10.00
2018-11-03T10:51:22.784Z,9.80
2018-11-03T10:53:51.436Z,12.23
2018-11-03T10:56:19.562Z,9.18
2018-11-03T10:58:47.807Z,11.12
2018-11-03T11:01:21.495Z,11.57
2018-11-03T11:03:55.168Z,12.82
2018-11-03T11:06:29.127Z,11.48
2018-11-03T11:09:02.638Z,9.63
2018-11-03T11:11:36.342Z,10.13
2018-11-03T11:14:05.363Z,11.57
2018-11-03T11:16:33.728Z,9.83
2018-11-03T11:19:01.852Z,8.50
2018-11-03T11:21:30.062Z,7.78
2018-11-03T11:23:58.318Z,11.22
2018-11-03T11:26:26.486Z,9.23
2018-11-03T11:28:54.929Z,11.05
2018-11-03T11:31:23.098Z,8.40
2018-11-03T11:33:51.279Z,8.20
2018-11-03T11:36:19.923Z,6.80
2018-11-03T11:38:48.266Z,8.90
2018-11-03T11:41:16.461Z,12.00
2018-11-03T11:43:45.060Z,6.87
2018-11-03T11:46:13.643Z,6.53
2018-11-03T11:48:41.979Z,7.65
2018-11-03T11:51:10.193Z,6.62
2018-11-03T11:53:38.725Z,5.90
2018-11-03T11:56:07.531Z,9.80
2018-11-03T11:58:35.676Z,8.88
2018-11-03T12:01:03.928Z,6.53
2018-11-03T12:03:32.439Z,6.45
2018-11-03T12:06:00.771Z,9.38
2018-11-03T12:08:29.136Z,6.17
2018-11-03T12:10:57.460Z,8.50
2018-11-03T12:13:26.414Z,6.05
2018-11-03T12:15:54.703Z,5.67
2018-11-03T12:18:22.876Z,6.25
2018-11-03T12:20:51.383Z,7.42
2018-11-03T12:23:19.610Z,6.47
2018-11-03T12:25:47.990Z,6.85
2018-11-03T12:28:16.508Z,6.15
2018-11-03T12:30:44.814Z,8.33
2018-11-03T12:33:13.011Z,6.83
2018-11-03T12:35:41.189Z,6.65
2018-11-03T12:38:09.352Z,9.30
2018-11-03T12:40:37.587Z,7.60
2018-11-03T12:43:05.831Z,6.95
2018-11-03T12:45:34.038Z,6.00
2018-11-03T12:48:02.369Z,7.17
2018-11-03T12:50:31.085Z,8.78
2018-11-03T12:52:59.342Z,9.95
2018-11-03T12:55:27.574Z,9.08
2018-11-03T12:57:55.726Z,6.70
2018-11-03T13:00:23.953Z,7.15
2018-11-03T13:02:52.216Z,7.53
2018-11-03T13:05:20.927Z,6.92
2018-11-03T13:07:48.998Z,7.03
2018-11-03T13:10:17.148Z,8.40
2018-11-03T13:12:45.332Z,8.05
2018-11-03T13:15:14.410Z,6.92
2018-11-03T13:17:42.597Z,8.00
2018-11-03T13:20:12.307Z,6.92
2018-11-03T13:22:40.894Z,7.17
2018-11-03T13:25:11.356Z,8.73
2018-11-03T13:27:41.113Z,9.38
2018-11-03T13:30:11.262Z,8.03
2018-11-03T13:32:39.585Z,7.50
2018-11-03T13:35:08.703Z,9.27
2018-11-03T13:37:36.880Z,8.57
2018-11-03T13:40:05.866Z,19.97
2018-11-03T13:42:34.908Z,9.93
2018-11-03T13:45:03.146Z,12.43
2018-11-03T13:47:31.350Z,8.53
2018-11-03T13:49:59.563Z,10.90
2018-11-03T13:52:28.424Z,9.97
2018-11-03T13:54:56.655Z,10.83
2018-11-03T13:57:24.867Z,9.20
2018-11-03T13:59:53.044Z,10.43
2018-11-03T14:02:21.204Z,12.17
2018-11-03T14:04:49.416Z,9.97
2018-11-03T14:07:17.697Z,10.40
2018-11-03T14:09:46.479Z,10.33
2018-11-03T14:12:14.703Z,10.17
2018-11-03T14:14:42.883Z,8.73
2018-11-03T14:17:11.170Z,9.23
2018-11-03T14:19:39.382Z,7.23
2018-11-03T14:22:07.611Z,9.20
2018-11-03T14:24:35.826Z,8.80
2018-11-03T14:27:04.102Z,9.43
2018-11-03T14:29:32.386Z,9.70
2018-11-03T14:32:00.698Z,8.67
2018-11-03T14:34:29.039Z,8.83
2018-11-03T14:36:57.262Z,13.67
2018-11-03T14:39:25.479Z,8.93
2018-11-03T14:41:53.689Z,9.07
2018-11-03T14:44:21.894Z,12.30
2018-11-03T14:46:50.124Z,11.83
2018-11-03T14:49:18.892Z,11.37
2018-11-03T14:51:47.080Z,13.33
2018-11-03T14:54:15.594Z,13.17
2018-11-03T14:56:43.802Z,12.87
2018-11-03T14:59:11.984Z,10.47
2018-11-03T15:01:40.228Z,9.63
2018-11-03T15:04:08.450Z,8.83
2018-11-03T15:06:36.678Z,9.33
2018-11-03T15:09:06.562Z,10.70
2018-11-03T15:11:34.747Z,12.07
2018-11-03T15:14:03.168Z,11.63
2018-11-03T15:16:31.211Z,11.33
2018-11-03T15:18:59.405Z,11.53
2018-11-03T15:21:27.594Z,10.33
2018-11-03T15:23:55.875Z,9.10
2018-11-03T15:26:24.062Z,14.47
2018-11-03T15:28:52.638Z,10.13
2018-11-03T15:31:21.370Z,11.07
2018-11-03T15:33:49.613Z,10.90
2018-11-03T15:36:18.023Z,11.93
2018-11-03T15:38:46.457Z,11.23
2018-11-03T15:41:14.966Z,9.10
2018-11-03T15:43:43.161Z,7.63
2018-11-03T15:46:11.378Z,10.63
2018-11-03T15:48:39.550Z,9.60
2018-11-03T15:51:07.774Z,11.43
2018-11-03T15:53:36.274Z,9.20
2018-11-03T15:56:04.476Z,11.23
2018-11-03T15:58:32.717Z,9.57
2018-11-03T16:01:00.983Z,11.77
2018-11-03T16:03:30.006Z,10.07
2018-11-03T16:05:58.218Z,10.10
2018-11-03T16:08:26.526Z,11.23
2018-11-03T16:10:54.767Z,10.60
2018-11-03T16:13:22.913Z,13.90
2018-11-03T16:15:51.093Z,10.13
2018-11-03T16:18:19.866Z,9.43
2018-11-03T16:20:48.053Z,13.03
2018-11-03T16:23:16.303Z,10.80
2018-11-03T16:25:44.938Z,10.67
2018-11-03T16:28:15.985Z,10.43
2018-11-03T16:30:44.158Z,10.00
2018-11-03T16:33:13.151Z,11.00
2018-11-03T16:35:42.948Z,10.47
2018-11-03T16:38:11.093Z,11.63
2018-11-03T16:40:39.282Z,12.33
2018-11-03T16:43:07.502Z,13.20
2018-11-03T16:45:35.745Z,10.83
2018-11-03T16:48:04.120Z,11.20
2018-11-03T16:50:32.982Z,12.63
2018-11-03T16:53:01.167Z,11.50
2018-11-03T16:55:29.467Z,10.13
2018-11-03T16:57:57.803Z,14.80
2018-11-03T17:00:26.011Z,12.17
2018-11-03T17:02:54.183Z,13.27
2018-11-03T17:05:22.410Z,10.23
2018-11-03T17:07:50.664Z,11.57
2018-11-03T17:10:18.921Z,12.00
2018-11-03T17:12:48.110Z,12.43
2018-11-03T17:15:16.764Z,14.47
2018-11-03T17:17:44.998Z,9.10
2018-11-03T17:20:13.213Z,11.70
2018-11-03T17:22:41.426Z,14.33
2018-11-03T17:25:10.977Z,13.47
2018-11-03T17:27:39.343Z,12.90
2018-11-03T17:30:09.011Z,11.23
2018-11-03T17:32:37.283Z,11.30
2018-11-03T17:35:05.682Z,14.07
2018-11-03T17:37:33.974Z,14.37
2018-11-03T17:40:02.603Z,11.53
2018-11-03T17:42:30.812Z,14.03
2018-11-03T17:44:59.018Z,15.93
2018-11-03T17:47:27.222Z,12.07
2018-11-03T17:49:55.418Z,13.67
2018-11-03T17:52:23.681Z,12.17
2018-11-03T17:54:51.960Z,12.67
2018-11-03T17:57:20.074Z,11.83
2018-11-03T17:59:48.279Z,18.53
2018-11-03T18:02:16.499Z,15.57
2018-11-03T18:04:44.843Z,13.43
2018-11-03T18:07:13.039Z,11.17
2018-11-03T18:09:41.280Z,16.33
2018-11-03T18:12:09.495Z,13.20
2018-11-03T18:14:38.637Z,14.27
2018-11-03T18:17:06.842Z,14.83
2018-11-03T18:19:35.087Z,14.70
2018-11-03T18:22:05.030Z,15.47
2018-11-03T18:24:33.398Z,18.67
2018-11-03T18:27:02.188Z,20.93
2018-11-03T18:29:31.292Z,14.30
2018-11-03T18:31:59.517Z,14.87
2018-11-03T18:34:27.754Z,12.73
2018-11-03T18:36:55.919Z,17.17
2018-11-03T18:39:24.128Z,16.07
2018-11-03T18:41:55.628Z,15.87
2018-11-03T18:44:23.900Z,14.90
2018-11-03T18:46:52.111Z,17.37
2018-11-03T18:49:20.328Z,15.27
2018-11-03T18:51:48.587Z,17.07
2018-11-03T18:54:16.726Z,14.47
2018-11-03T18:56:44.926Z,14.27
2018-11-03T18:59:13.135Z,16.00
2018-11-03T19:01:41.366Z,16.83
2018-11-03T19:04:09.633Z,16.53
2018-11-03T19:06:37.886Z,16.43
2018-11-03T19:09:06.911Z,15.60
2018-11-03T19:11:35.194Z,16.57
2018-11-03T19:14:03.523Z,15.57
2018-11-03T19:16:31.839Z,21.53
2018-11-03T19:19:00.038Z,16.37
2018-11-03T19:21:28.264Z,13.70
2018-11-03T19:23:56.887Z,14.47
2018-11-03T19:26:25.150Z,18.53
2018-11-03T19:28:53.394Z,18.37
2018-11-03T19:31:21.598Z,15.00
2018-11-03T19:33:49.814Z,14.40
2018-11-03T19:36:18.073Z,13.07
2018-11-03T19:38:46.434Z,13.77
2018-11-03T19:41:14.894Z,15.30
2018-11-03T19:43:43.090Z,14.03
2018-11-03T19:46:11.334Z,15.80
2018-11-03T19:48:39.558Z,17.07
2018-11-03T19:51:07.783Z,14.20
2018-11-03T19:53:36.144Z,16.17
2018-11-03T19:56:04.419Z,12.70
2018-11-03T19:58:32.607Z,16.33
2018-11-03T20:01:00.963Z,13.23
2018-11-03T20:03:29.241Z,11.67
2018-11-03T20:05:57.407Z,16.07
2018-11-03T20:08:25.681Z,15.43
2018-11-03T20:10:53.865Z,16.57
2018-11-03T20:13:22.065Z,19.73
2018-11-03T20:15:50.306Z,20.07
2018-11-03T20:18:18.478Z,22.87
2018-11-03T20:20:47.062Z,23.20
2018-11-03T20:23:15.234Z,21.73
2018-11-03T20:25:43.450Z,23.37
2018-11-03T20:28:12.469Z,18.33
2018-11-03T20:30:40.806Z,19.37
2018-11-03T20:33:09.035Z,16.97
2018-11-03T20:35:37.302Z,19.20
2018-11-03T20:38:05.838Z,17.03
2018-11-03T20:40:34.937Z,14.60
2018-11-03T20:43:03.166Z,15.50
2018-11-03T20:45:31.378Z,13.80
2018-11-03T20:48:00.258Z,16.87
2018-11-03T20:50:28.457Z,15.60
2018-11-03T20:52:56.687Z,18.10
2018-11-03T20:55:24.911Z,16.67
2018-11-03T20:57:53.694Z,13.93
2018-11-03T21:00:21.900Z,15.57
2018-11-03T21:02:50.093Z,15.10
2018-11-03T21:05:18.294Z,16.57
2018-11-03T21:07:46.602Z,17.17
2018-11-03T21:10:16.512Z,19.57
2018-11-03T21:12:45.042Z,15.90
2018-11-03T21:15:13.930Z,16.17
2018-11-03T21:17:43.097Z,16.70
2018-11-03T21:20:11.635Z,18.47
2018-11-03T21:22:39.899Z,15.60
2018-11-03T21:25:08.073Z,16.57
2018-11-03T21:27:36.286Z,16.87
2018-11-03T21:30:05.232Z,16.37
2018-11-03T21:32:33.382Z,14.20
2018-11-03T21:35:01.630Z,14.97
2018-11-03T21:37:29.946Z,14.80
2018-11-03T21:39:58.126Z,14.77
2018-11-03T21:42:26.650Z,24.47
2018-11-03T21:44:55.242Z,16.53
2018-11-03T21:47:23.386Z,14.77
2018-11-03T21:49:52.529Z,20.50
2018-11-03T21:52:21.232Z,17.87
2018-11-03T21:54:49.838Z,20.70
2018-11-03T21:57:18.627Z,15.40
2018-11-03T21:59:46.867Z,15.50
2018-11-03T22:02:15.494Z,17.80
2018-11-03T22:04:43.662Z,15.97
2018-11-03T22:07:11.881Z,17.40
2018-11-03T22:09:40.066Z,15.27
2018-11-03T22:12:08.911Z,16.50
2018-11-03T22:14:37.066Z,15.67
2018-11-03T22:17:05.283Z,16.63
2018-11-03T22:19:33.962Z,16.20
2018-11-03T22:22:02.473Z,13.63
2018-11-03T22:24:31.578Z,15.73
2018-11-03T22:26:59.870Z,17.87
2018-11-03T22:29:28.083Z,14.73
2018-11-03T22:31:56.297Z,15.60
2018-11-03T22:34:24.726Z,16.47
2018-11-03T22:36:52.901Z,16.63
2018-11-03T22:39:21.094Z,19.50
2018-11-03T22:41:49.290Z,20.10
2018-11-03T22:44:17.565Z,19.27
2018-11-03T22:46:45.733Z,21.93
2018-11-03T22:49:13.914Z,20.57
2018-11-03T22:51:42.156Z,16.43
2018-11-03T22:54:10.350Z,16.33
2018-11-03T22:56:38.558Z,15.90
2018-11-03T22:59:06.836Z,17.30
2018-11-03T23:01:35.153Z,19.33
2018-11-03T23:04:03.554Z,19.17
2018-11-03T23:06:31.814Z,17.73
2018-11-03T23:09:00.593Z,19.70
2018-11-03T23:11:28.782Z,17.83
2018-11-03T23:13:57.038Z,17.50
2018-11-03T23:16:25.388Z,20.33
2018-11-03T23:18:53.605Z,15.40
2018-11-03T23:21:21.807Z,16.40
2018-11-03T23:23:50.371Z,16.07
2018-11-03T23:26:18.650Z,14.93
2018-11-03T23:28:46.886Z,18.70
2018-11-03T23:31:15.352Z,16.53
2018-11-03T23:33:44.151Z,22.07
2018-11-03T23:36:12.404Z,23.43
2018-11-03T23:38:40.654Z,16.70
2018-11-03T23:41:08.838Z,17.87
2018-11-03T23:43:37.284Z,15.87
2018-11-03T23:46:05.662Z,16.57
2018-11-03T23:48:33.887Z,18.77
2018-11-03T23:51:02.103Z,17.87
2018-11-03T23:53:30.311Z,18.37
2018-11-03T23:55:58.518Z,19.13
2018-11-03T23:58:27.670Z,18.30
